Tiempo atmosférico en la estación meteorológica de Guadalajara, Guadalajara (721 m.)



Fecha
DESCASC
Temp. máxima en grados centígrados (hora)
DESCASC
Temp. mínima en grados centígrados (hora)
DESCASC
Temp. media en grados centígrados
DESCASC
Racha de viento máxima en m/sg (hora)
DESCASC
Velocidad máxima media en intervalos de 10 minutos(hora)
DESCASC
Precipitaciones diarias en mm
DESCASC
Precipitaciones de 00:00 a 06:00 en mm
DESCASC
Precipitaciones de 06:00 a 12:00 en mm
DESCASC
Precipitaciones de 12:00 a 18:00 en mm
DESCASC
Precipitaciones de 18:00 a 24:00 en mm
DESCASC

Gráficas

Temp. máximas Temp. mínimas Temp. medias Precipitaciones Rachas de viento máximas Velocidades máximas media en intervalos de 10 minutos

Datos horarios

Fecha y hora oficial Temperatura (ºC) Velocidad del viento (km/h) Dirección del viento Racha (km/h) Dirección de racha Precipitación (mm) Presión (hPa) Tendencia (hPa) Humedad (%)
2020-04-01 23:00:00 8.5 6 Sur 10 Sur 0 927.5 1.2 80
2020-04-01 22:00:00 9.5 5 Sur 9 Sur 0 927.2 0.9 81
2020-04-01 21:00:00 11 3 Sudeste 6 Sudoeste 0 926.7 0.4 73
2020-04-01 20:00:00 11.5 3 Sudeste 12 Sur 0 926.3 -0.1 69
2020-04-01 19:00:00 11.6 8 Sudoeste 13 Sudoeste 0 926.3 -0.4 70
2020-04-01 18:00:00 12.2 10 Sudoeste 15 Sudoeste 0 926.3 -0.9 67
2020-04-01 17:00:00 12.5 10 Sudoeste 17 Sudoeste 0 926.4 -1.1 64
2020-04-01 16:00:00 11.9 8 Oeste 19 Sudoeste 0 926.7 -0.8 71
2020-04-01 15:00:00 10 8 Oeste 27 Noroeste 0.2 927.2 -0.3 85
2020-04-01 14:00:00 9 6 Sudoeste 21 Sudoeste 1.8 927.5 0 88
2020-04-01 13:00:00 10.2 10 Oeste 23 Sudoeste 0 927.5 0.3 83
2020-04-01 12:00:00 11 11 Sur 18 Sur 0 927.5 0.7 80
2020-04-01 11:00:00 9.5 2 Norte 8 Noroeste 0 927.5 1 89
2020-04-01 10:00:00 8.4 4 Norte 9 Noroeste 0 927.2 1.4 94
2020-04-01 09:00:00 7.9 3 Sudoeste 7 Oeste 0 926.8 0.8 94
2020-04-01 08:00:00 7.3 4 Sudeste 5 Sudeste 0 926.5 0.4 97
2020-04-01 07:00:00 7.3 3 Nordeste 7 Nordeste 0.2 925.8 -0.4 96
2020-04-01 06:00:00 7.4 3 Nordeste 6 Norte 0 926 -0.1 95
2020-04-01 05:00:00 7.6 5 Este 11 Este 0 926.1 -0.1 92
2020-04-01 04:00:00 7.7 6 Nordeste 19 Sudeste 0.2 926.2 0 90
2020-04-01 03:00:00 7.7 9 Sudeste 36 Sudeste 0.6 926.1 0 88
2020-04-01 02:00:00 8 21 Sudeste 37 Sur 4.2 926.2 0.3 88
2020-04-01 01:00:00 7.9 6 Este 16 Oeste 6.4 926.2 1.2 96
2020-04-01 00:00:00 8.3 4 Sudoeste 15 Sudoeste 5 926.1 1.7 95
2020-03-31 23:00:00 9.1 3 Oeste 26 Sudeste 0.8 925.9 1.9 92
2020-03-31 22:00:00 9.1 16 Este 28 Sudeste 0.4 925 1.4 89
2020-03-31 21:00:00 9.2 21 Este 32 Este 0.8 924.4 1.5 90
2020-03-31 20:00:00 9.8 13 Sudeste 24 Sur 2.6 924 1.3 90
2020-03-31 19:00:00 10.3 17 Sur 35 Sudeste 0.2 923.6 0.9 84
2020-03-31 18:00:00 11.4 21 Sudeste 36 Sudeste 0.4 922.9 0.2 79
2020-03-31 17:00:00 11 18 Sudeste 34 Sudeste 0.2 922.7 -0.4 80
2020-03-31 16:00:00 10.4 14 Sudeste 37 Sudeste 0.4 922.7 -0.6 86
2020-03-31 15:00:00 11.5 21 Sudeste 33 Sudeste 0 922.7 -0.6 82
2020-03-31 14:00:00 7.9 13 Sudeste 29 Sudeste 0.2 923.1 -0.6 88
2020-03-31 13:00:00 5.3 9 Nordeste 19 Nordeste 0.6 923.3 -0.2 94
2020-03-31 12:00:00 3.8 6 Norte 13 Nordeste 1.4 923.3 0.1 97
2020-03-31 11:00:00 2.8 5 Norte 12 Nordeste 1.6 923.7 0.7 95
2020-03-31 10:00:00 2.7 4 Norte 12 Norte 1.2 923.5 0.6 96
2020-03-31 09:00:00 2.1 5 Norte 12 Norte 0.6 923.2 -0.2 95
2020-03-31 08:00:00 1.5 5 Nordeste 16 Nordeste 0.2 923 -0.8 94
2020-03-31 07:00:00 1 9 Nordeste 21 Norte 0.2 922.9 -1.6 94
2020-03-31 06:00:00 0.8 11 Nordeste 27 Nordeste 0.4 923.4 -1.9 93
2020-03-31 05:00:00 0.9 14 Nordeste 27 Nordeste 0.4 923.8 -2.4 90
2020-03-31 04:00:00 0.7 15 Nordeste 27 Nordeste 0.4 924.5 -2.1 93
2020-03-31 03:00:00 0.9 11 Nordeste 24 Nordeste 0.6 925.3 -1.9 93
2020-03-31 02:00:00 0.8 15 Nordeste 26 Nordeste 1 926.2 -1.1 94
2020-03-31 01:00:00 1 13 Nordeste 24 Norte 1.2 926.6 -0.8 94
2020-03-31 00:00:00 1.2 11 Nordeste 23 Nordeste 0.8 927.2 -0.5 93
2020-03-30 23:00:00 1.5 10 Nordeste 33 Nordeste 0.4 927.3 -0.3 91
2020-03-30 22:00:00 2 20 Nordeste 33 Nordeste 0.2 927.4 -0.4 87
2020-03-30 21:00:00 2.1 22 Nordeste 38 Nordeste 0 927.7 -0.5 89
2020-03-30 20:00:00 2.6 20 Nordeste 34 Este 0 927.6 -0.9 85
2020-03-30 19:00:00 3 21 Nordeste 37 Nordeste 0.2 927.8 -1 86
2020-03-30 18:00:00 3.2 19 Nordeste 31 Nordeste 0.2 928.2 -1.5 87
2020-03-30 17:00:00 3.9 19 Nordeste 35 Nordeste 0 928.5 -1.3 81
2020-03-30 16:00:00 3.4 19 Este 35 Nordeste 0 928.8 -1.1 85
2020-03-30 15:00:00 3.5 24 Nordeste 39 Este 0 929.7 -0.5 78
2020-03-30 14:00:00 5.2 24 Nordeste 44 Nordeste 0 929.8 -0.4 61
2020-03-30 13:00:00 6.6 23 Nordeste 43 Nordeste 0 929.9 -0.1 52
2020-03-30 12:00:00 7.2 24 Nordeste 42 Nordeste 0 930.2 0.5 57
2020-03-30 11:00:00 5.4 22 Nordeste 40 Nordeste 0 930.2 0.8 59
2020-03-30 10:00:00 5.4 22 Nordeste 38 Nordeste 0 930 0.8 67
2020-03-30 09:00:00 5 24 Nordeste 39 Nordeste 0 929.7 0.5 66
2020-03-30 08:00:00 5.3 22 Nordeste 33 Este 0 929.4 0.1 64
2020-03-30 07:00:00 6 15 Nordeste 37 Este 0 929.2 -0.5 66
2020-03-30 06:00:00 6.5 19 Nordeste 31 Nordeste 0 929.2 -0.8 65
2020-03-30 05:00:00 7.2 15 Nordeste 34 Nordeste 0 929.3 -1.1 64
2020-03-30 04:00:00 8.1 14 Nordeste 30 Nordeste 0 929.7 -1.1 61
2020-03-30 03:00:00 8.7 15 Nordeste 40 Nordeste 0 930 -0.7 64
2020-03-30 02:00:00 9.1 18 Este 34 Este 0 930.4 -0.1 63
2020-03-30 01:00:00 10 12 Nordeste 25 Nordeste 0 930.8 0.5 59
2020-03-30 00:00:00 11.1 15 Este 32 Este 0 930.7 0.8 53
2020-03-29 23:00:00 12.7 19 Este 31 Este 0 930.5 0.6 45
2020-03-29 22:00:00 14.3 5 Nordeste 14 Sudoeste 0 930.3 0.4 37
2020-03-29 21:00:00 14.5 8 Sudoeste 17 Oeste 0 929.9 -0.2 44
2020-03-29 20:00:00 16.7 10 Oeste 19 Sudoeste 0 929.9 -0.6 36
2020-03-29 19:00:00 18.4 10 Sudoeste 21 Sudoeste 0 929.9 -1.2 32
2020-03-29 18:00:00 18.3 6 Noroeste 17 Sudoeste 0 930.1 -1.8 33
2020-03-29 17:00:00 18.5 5 Noroeste 18 Noroeste 0 930.5 -2.1 32
2020-03-29 16:00:00 18.9 8 Sudoeste 17 Sudoeste 0 931.1 -2.1 31
2020-03-29 15:00:00 17.8 5 Noroeste 20 Oeste 0 931.9 -2 32
2020-03-29 14:00:00 16.7 8 Sudoeste 16 Sudoeste 0 932.6 -1.6 37
2020-03-29 13:00:00 15.5 6 Sudoeste 13 Sudoeste 0 933.2 -1 42
2020-03-29 12:00:00 13.7 4 Oeste 9 Oeste 0 933.9 -0.3 44
2020-03-29 11:00:00 10.4 4 Norte 6 Nordeste 0 934.2 0.4 60
2020-03-29 10:00:00 7.2 3 Nordeste 7 Nordeste 0 934.2 0.5 66
2020-03-29 09:00:00 4.1 4 Norte 7 Norte 0 934.2 0.6 78
2020-03-29 08:00:00 2.6 0 Calma 4 Noroeste 0 933.8 0 82
2020-03-29 07:00:00 3 3 Nordeste 4 Norte 0 933.7 -0.2 80
2020-03-29 06:00:00 3.2 4 Este 4 Este 0 933.6 -0.6 79
2020-03-29 05:00:00 3.5 3 Sur 5 Este 0 933.8 -0.5 79
2020-03-29 03:00:00 5 0 Calma 6 Sur 0 934.2 0 72
2020-03-29 01:00:00 5.5 4 Sur 5 Sur 0 934.3 0.2 71
2020-03-29 00:00:00 6.4 3 Sur 7 Sudeste 0 934.4 0.9 68
2020-03-28 23:00:00 8 5 Sur 8 Sudoeste 0 934.2 1.3 61
2020-03-28 22:00:00 9.1 7 Sudoeste 10 Sur 0 934.1 1.8 55
2020-03-28 21:00:00 10.7 7 Sur 12 Sudoeste 0 933.5 1.6 51
2020-03-28 20:00:00 13 8 Sudoeste 18 Oeste 0 932.9 1.1 43
2020-03-28 19:00:00 14.7 8 Oeste 18 Sudoeste 0 932.3 0.3 38
2020-03-28 18:00:00 15.8 7 Sudoeste 15 Sudoeste 0 931.9 -0.3 35
2020-03-28 17:00:00 15.4 6 Oeste 14 Oeste 0 931.8 -0.8 36
2020-03-28 16:00:00 16.8 7 Oeste 16 Oeste 0 932 -1.2 35
2020-03-28 15:00:00 15.5 6 Noroeste 28 Noroeste 0 932.2 -1.4 36
2020-03-28 14:00:00 15.7 5 Sur 15 Este 0 932.6 -1.1 35
2020-03-28 13:00:00 14 7 Norte 14 Nordeste 0 933.2 -0.5 39
2020-03-28 12:00:00 12.7 6 Sudoeste 11 Oeste 0 933.6 0.3 43
2020-03-28 11:00:00 10.8 4 Nordeste 10 Noroeste 0 933.7 0.7 45
2020-03-28 10:00:00 8.1 4 Norte 8 Nordeste 0 933.7 1.3 67
2020-03-28 09:00:00 4.8 4 Norte 13 Norte 0 933.3 1.2 72
2020-03-28 08:00:00 2.6 3 Nordeste 14 Este 0 933 1.2 82
2020-03-28 07:00:00 1 4 Nordeste 12 Nordeste 0 932.4 0.9 86
2020-03-28 06:00:00 0.7 3 Norte 8 Nordeste 0 932.1 0.6 89
2020-03-28 05:00:00 0.8 3 Sudeste 6 Este 0 931.8 0.3 91
2020-03-28 04:00:00 1.4 3 Este 5 Sur 0 931.5 0.3 90
2020-03-28 03:00:00 1.7 0 Calma 5 Este 0 931.5 0.4 89
2020-03-28 02:00:00 2 2 Oeste 4 Noroeste 0 931.5 0.7 88
2020-03-28 01:00:00 2.7 2 Nordeste 3 Este 0 931.2 0.7 85
2020-03-28 00:00:00 3.5 0 Calma 5 Sur 0 931.1 1.4 84
2020-03-27 23:00:00 4.2 0 Calma 8 Sur 0 930.8 2.2 81
2020-03-27 22:00:00 5.6 4 Sur 12 Sudoeste 0 930.5 2.2 74
2020-03-27 21:00:00 6.3 7 Sudoeste 12 Sur 0 929.7 2.2 69
2020-03-27 20:00:00 7.9 7 Sur 33 Sudeste 0 928.6 1.4 57
2020-03-27 19:00:00 10.6 15 Sudeste 29 Sudeste 0 928.3 1 50
2020-03-27 18:00:00 11.3 4 Oeste 17 Sudoeste 0 927.5 -0.2 44
2020-03-27 17:00:00 12.4 7 Oeste 19 Sur 0 927.2 -0.9 44
2020-03-27 16:00:00 12.6 10 Sur 27 Sur 0 927.3 -1.2 40
2020-03-27 15:00:00 11.5 9 Sur 30 Sudeste 0 927.7 -0.9 46
2020-03-27 14:00:00 10 10 Este 20 Este 0 928.1 -0.1 51
2020-03-27 13:00:00 8.1 12 Este 25 Sudeste 0 928.5 0.6 59
2020-03-27 12:00:00 7.8 12 Sudeste 27 Sudeste 0 928.6 0.9 64
2020-03-27 11:00:00 7.2 12 Sudeste 29 Este 0 928.2 0.8 65
2020-03-27 10:00:00 5.6 15 Este 28 Este 0 927.9 0.9 69
2020-03-27 09:00:00 3.2 11 Este 25 Este 0 927.7 1.1 83
2020-03-27 08:00:00 2.2 10 Nordeste 23 Este 0 927.4 0.9 89
2020-03-27 07:00:00 2.5 18 Este 27 Este 0 927 0.7 81
2020-03-27 06:00:00 2.7 17 Nordeste 27 Nordeste 0 926.6 0.7 76
2020-03-27 05:00:00 4.2 13 Este 23 Nordeste 0 926.5 0.4 59
2020-03-27 04:00:00 4.5 11 Nordeste 23 Nordeste 0 926.3 0.2 56
2020-03-27 03:00:00 4.9 12 Nordeste 27 Nordeste 0 925.9 0.1 57
2020-03-27 02:00:00 5 14 Nordeste 28 Nordeste 0 926.1 0 56
2020-03-27 01:00:00 5.4 15 Este 31 Este 0 926.1 0.6 55
2020-03-27 00:00:00 6 14 Este 22 Este 0 925.8 0.2 52
2020-03-26 23:00:00 6.8 10 Norte 23 Nordeste 0 926.1 0.8 51
2020-03-26 22:00:00 6.5 9 Nordeste 18 Este 0 925.5 0.7 57
2020-03-26 21:00:00 7.6 8 Nordeste 15 Nordeste 0 925.6 1.2 53
2020-03-26 20:00:00 9.4 8 Nordeste 18 Norte 0 925.3 1.2 47
2020-03-26 19:00:00 11.1 8 Norte 25 Norte 0 924.8 0.6 39
2020-03-26 18:00:00 12.7 10 Norte 27 Nordeste 0 924.4 0.4 35
2020-03-26 17:00:00 13.1 10 Nordeste 23 Nordeste 0 924.1 -0.3 35
2020-03-26 16:00:00 13.5 15 Nordeste 33 Nordeste 0 924.2 -0.7 34
2020-03-26 15:00:00 14.7 15 Nordeste 32 Nordeste 0 924 -1.5 31
2020-03-26 14:00:00 14.2 7 Noroeste 15 Noroeste 0 924.4 -1.5 31
2020-03-26 13:00:00 12.5 6 Norte 16 Nordeste 0 924.9 -1.3 29
2020-03-26 12:00:00 11.7 10 Nordeste 17 Nordeste 0 925.5 -1 34
2020-03-26 11:00:00 9.5 6 Norte 14 Norte 0 925.9 -0.7 36
2020-03-26 10:00:00 8.3 5 Nordeste 13 Este 0 926.2 -0.2 38
2020-03-26 09:00:00 5.1 6 Nordeste 12 Nordeste 0 926.5 0.2 51
2020-03-26 08:00:00 2.1 6 Nordeste 11 Este 0 926.6 0.5 64
2020-03-26 07:00:00 0.9 5 Nordeste 10 Este 0 926.4 0.3 68
2020-03-26 06:00:00 1.5 4 Nordeste 8 Nordeste 0 926.3 -0.3 68
2020-03-26 05:00:00 1.6 4 Este 9 Sur 0 926.1 -1 80
2020-03-26 04:00:00 3 4 Sur 7 Sur 0 926.1 -1.5 88
2020-03-26 03:00:00 3.8 3 Sudoeste 6 Sur 0 926.6 -1 87
2020-03-26 02:00:00 4.8 4 Este 12 Este 0 927.1 -0.6 88
2020-03-26 01:00:00 5.6 4 Sur 11 Nordeste 0 927.6 -0.1 85
2020-03-26 00:00:00 6.6 5 Sur 10 Nordeste 0 927.6 -0.1 81
2020-03-25 23:00:00 8.4 6 Norte 13 Norte 0 927.7 0.2 74
2020-03-25 22:00:00 8.6 7 Este 13 Nordeste 0 927.7 0.5 70
2020-03-25 21:00:00 10.4 3 Sur 10 Este 0 927.7 0.4 59
2020-03-25 20:00:00 13.1 4 Sudeste 18 Sudoeste 0 927.5 0 59
2020-03-25 19:00:00 15 10 Sudoeste 28 Sudoeste 0 927.2 -1.1 54
2020-03-25 18:00:00 15.9 13 Sudoeste 29 Sudoeste 0 927.3 -1.7 46
2020-03-25 17:00:00 14.7 12 Sur 22 Sudoeste 0 927.5 -2.4 52
2020-03-25 16:00:00 15.5 11 Sudoeste 20 Sudoeste 0 928.3 -2.3 46
2020-03-25 15:00:00 15.9 10 Sudoeste 22 Sudoeste 0 929 -2.2 45
2020-03-25 14:00:00 14.6 12 Oeste 22 Sudoeste 0 929.9 -1.5 48
2020-03-25 13:00:00 13.3 9 Sudoeste 21 Oeste 0 930.6 -1.1 54
2020-03-25 12:00:00 11.9 11 Sudoeste 23 Sudoeste 0 931.2 -0.5 57
2020-03-25 11:00:00 10.2 11 Oeste 23 Sudoeste 0 931.4 -0.3 61
2020-03-25 10:00:00 8.7 12 Oeste 22 Oeste 0 931.7 0.3 73
2020-03-25 09:00:00 7.4 12 Sudoeste 19 Sudoeste 0 931.7 0.1 80
2020-03-25 08:00:00 6.5 8 Sudoeste 14 Sudoeste 0 931.7 0 85
2020-03-25 07:00:00 6 9 Sudoeste 16 Sudoeste 0 931.4 -0.5 87
2020-03-25 06:00:00 6.4 8 Sudoeste 14 Sudoeste 0 931.6 -0.5 85
2020-03-25 05:00:00 7.3 8 Sudoeste 17 Sudoeste 0 931.7 -0.4 81
2020-03-25 04:00:00 7.4 9 Sudoeste 18 Sudoeste 0 931.9 -0.2 82
2020-03-25 03:00:00 7.7 3 Noroeste 13 Oeste 0 932.1 0 81
2020-03-25 02:00:00 7.5 7 Sudoeste 10 Sudoeste 0 932.1 -0.1 85
2020-03-25 01:00:00 7 0 Calma 5 Sudoeste 0 932.1 0.2 83
2020-03-25 00:00:00 8.6 3 Sudeste 5 Sur 0 932.1 0.3 80
2020-03-24 23:00:00 9.3 3 Este 6 Este 0 932.2 1 76
2020-03-24 22:00:00 10 5 Este 15 Nordeste 0 931.9 1.4 72
2020-03-24 21:00:00 10.7 7 Nordeste 19 Nordeste 0 931.8 1.6 67
2020-03-24 20:00:00 11.7 12 Nordeste 21 Nordeste 0 931.2 1.3 64
2020-03-24 19:00:00 13.4 12 Nordeste 27 Este 0 930.5 0.5 54
2020-03-24 18:00:00 14.2 20 Nordeste 29 Este 0 930.2 -0.1 50
2020-03-24 17:00:00 14.9 19 Nordeste 28 Nordeste 0 929.9 -1.2 49
2020-03-24 16:00:00 16.8 14 Nordeste 29 Nordeste 0 930 -1.5 45
2020-03-24 15:00:00 15 18 Nordeste 33 Nordeste 0 930.3 -1.5 47
2020-03-24 14:00:00 15.6 15 Este 32 Nordeste 0 931.1 -0.9 48
2020-03-24 13:00:00 15 15 Este 33 Nordeste 0 931.5 -0.5 49
2020-03-24 12:00:00 13.3 20 Este 34 Nordeste 0 931.8 -0.1 60
2020-03-24 11:00:00 12.8 19 Nordeste 33 Este 0 932 0.2 61
2020-03-24 10:00:00 11.8 24 Nordeste 36 Este 0 932 0.5 66
2020-03-24 09:00:00 9.1 12 Nordeste 23 Nordeste 0 931.9 0.5 77
2020-03-24 08:00:00 8.2 8 Norte 24 Nordeste 0 931.8 0.5 80
2020-03-24 07:00:00 8 12 Nordeste 21 Nordeste 0 931.5 0 81
2020-03-24 06:00:00 7.9 8 Nordeste 17 Nordeste 0 931.4 -0.2 83
2020-03-24 05:00:00 8.1 8 Nordeste 16 Norte 0 931.3 -0.4 84
2020-03-24 04:00:00 8 6 Norte 14 Norte 0 931.5 -0.5 85
2020-03-24 03:00:00 7.9 6 Nordeste 19 Norte 0 931.6 -0.5 84
2020-03-24 02:00:00 8.2 5 Nordeste 22 Este 0 931.7 -0.3 82
2020-03-24 01:00:00 7.9 12 Este 21 Este 0 932 0.2 85
2020-03-24 00:00:00 8.6 3 Este 22 Nordeste 0 932.1 0.6 82
2020-03-23 23:00:00 9.1 7 Nordeste 15 Nordeste 0 932 0.9 81
2020-03-23 22:00:00 9.3 3 Nordeste 15 Este 0 931.8 1 81
2020-03-23 21:00:00 9.6 6 Este 14 Este 0 931.5 1.4 80
2020-03-23 20:00:00 10.8 8 Este 16 Sudeste 0 931.1 1 70
2020-03-23 19:00:00 13 8 Sudeste 21 Este 0 930.8 0.5 58
2020-03-23 18:00:00 13.6 9 Este 22 Sudeste 0 930.1 -0.1 56
2020-03-23 17:00:00 13.3 10 Sudeste 25 Sudeste 0 930.1 -0.7 63
2020-03-23 16:00:00 14.8 13 Sur 32 Este 0 930.3 -1 52
2020-03-23 15:00:00 14.9 17 Este 28 Este 0 930.2 -1.6 55
2020-03-23 14:00:00 12.9 15 Sudeste 24 Este 0.2 930.8 -0.7 60
2020-03-23 13:00:00 12.8 13 Este 24 Este 0 931.3 0.2 71
2020-03-23 12:00:00 10.4 14 Este 28 Este 0.2 931.8 1.1 81
2020-03-23 11:00:00 10.8 15 Este 28 Este 0 931.5 1.1 77
2020-03-23 10:00:00 10.8 17 Este 28 Este 0 931.1 1.1 77
2020-03-23 09:00:00 9.2 12 Este 22 Este 0 930.7 1 83
2020-03-23 08:00:00 7.9 4 Nordeste 7 Nordeste 0 930.4 0.9 95
2020-03-23 07:00:00 7.9 3 Nordeste 8 Nordeste 0 930 0.7 93
2020-03-23 06:00:00 8.3 0 Calma 7 Sur 0 929.7 0.2 90
2020-03-23 05:00:00 8.2 0 Calma 3 Sudeste 0 929.5 -0.2 93
2020-03-23 04:00:00 8 2 Este 6 Sudeste 0 929.3 -0.5 92
2020-03-23 03:00:00 8.2 3 Norte 5 Nordeste 0 929.5 -0.4 91
2020-03-23 02:00:00 8.4 3 Este 9 Nordeste 0 929.7 0.1 90
2020-03-23 01:00:00 8.3 5 Nordeste 8 Nordeste 0 929.8 0.5 91
2020-03-23 00:00:00 8.1 5 Sur 10 Nordeste 0 929.9 1.2 90
2020-03-22 23:00:00 8.7 2 Nordeste 19 Sudeste 0 929.6 1.9 87
2020-03-22 22:00:00 9.1 9 Sur 20 Sur 0 929.3 2.1 85
2020-03-22 21:00:00 9.8 8 Sur 19 Sudeste 0 928.7 2.2 79
2020-03-22 20:00:00 10.2 3 Nordeste 14 Sur 0 927.7 1.4 79
2020-03-22 19:00:00 11.2 9 Sur 14 Sudoeste 0 927.2 0.7 73
2020-03-22 18:00:00 12.3 6 Este 13 Este 0 926.5 -0.5 64
2020-03-22 17:00:00 11.7 4 Nordeste 14 Nordeste 0.2 926.3 -0.9 80
2020-03-22 16:00:00 11.7 6 Nordeste 13 Nordeste 0 926.5 -1.4 78
2020-03-22 15:00:00 10.6 6 Nordeste 14 Norte 0 927 -1 81
2020-03-22 14:00:00 9.5 6 Norte 15 Norte 0.6 927.2 -0.8 89
2020-03-22 13:00:00 9.1 6 Nordeste 17 Nordeste 0.8 927.9 0.1 85
2020-03-22 12:00:00 9.5 9 Nordeste 16 Este 0.2 928 0.6 81
2020-03-22 11:00:00 9.5 6 Nordeste 12 Nordeste 0 928 0.8 86
2020-03-22 10:00:00 8.6 5 Norte 9 Norte 0 927.8 0.9 90
2020-03-22 09:00:00 7.4 2 Oeste 9 Nordeste 0 927.4 0.6 92
2020-03-22 08:00:00 6.3 7 Nordeste 12 Nordeste 0 927.2 0.5 95
2020-03-22 07:00:00 6 3 Este 7 Nordeste 0 926.9 0 93
2020-03-22 06:00:00 6.6 5 Este 6 Este 0 926.8 -0.4 94
2020-03-22 05:00:00 6.7 2 Nordeste 5 Nordeste 0 926.7 -0.9 94
2020-03-22 04:00:00 6.6 4 Este 8 Nordeste 0 926.9 -0.9 96
2020-03-22 03:00:00 6.9 4 Nordeste 7 Este 0 927.2 -0.8 93
2020-03-22 02:00:00 6.9 0 Calma 9 Norte 0.2 927.6 -0.4 91
2020-03-22 01:00:00 7 4 Nordeste 12 Norte 0.4 927.8 -0.4 91
2020-03-22 00:00:00 6.9 6 Este 14 Este 0.6 928 0.1 91
2020-03-21 23:00:00 7 4 Nordeste 11 Sudeste 0.6 928 0.5 91
2020-03-21 22:00:00 7.4 6 Sudeste 12 Sudeste 0.2 928.2 1.1 90
2020-03-21 21:00:00 7.8 0 Calma 10 Nordeste 0.4 927.9 1 92
2020-03-21 20:00:00 7.9 3 Sudeste 9 Oeste 0.4 927.5 0.5 91
2020-03-21 19:00:00 8.4 0 Calma 6 Este 0.2 927.1 0 91
2020-03-21 18:00:00 8.5 6 Oeste 12 Sudoeste 0.2 926.9 -0.3 89
2020-03-21 17:00:00 8.6 9 Sudoeste 21 Sudoeste 0 927 -0.5 89
2020-03-21 16:00:00 8.3 13 Sudoeste 27 Sudoeste 0 927.1 -0.7 89
2020-03-21 15:00:00 9.8 12 Sur 23 Sur 0 927.2 -1 88
2020-03-21 14:00:00 10 11 Sudeste 24 Sur 0 927.5 -1 85
2020-03-21 13:00:00 10.5 13 Sudeste 24 Sudeste 0 927.8 -0.6 78
2020-03-21 12:00:00 10.1 15 Sudeste 28 Sudeste 0 928.2 0 76
2020-03-21 11:00:00 9.7 16 Sudeste 27 Sudeste 0 928.5 0.5 76
2020-03-21 10:00:00 9.7 17 Sudeste 30 Sudeste 0 928.4 0.4 76
2020-03-21 09:00:00 8.8 14 Sudeste 23 Sudeste 0 928.2 -0.3 77
2020-03-21 08:00:00 8.7 4 Nordeste 13 Este 0 928 -1 77
2020-03-21 07:00:00 8.1 4 Nordeste 8 Nordeste 0 928 -1.3 79
2020-03-21 06:00:00 7.3 5 Nordeste 11 Este 0 928.5 -1.6 84
2020-03-21 05:00:00 7.4 4 Este 8 Este 0 929 -1.4 85
2020-03-21 04:00:00 8.5 5 Nordeste 8 Este 0 929.3 -1.1 83
2020-03-21 03:00:00 8.6 2 Este 6 Nordeste 0 930.1 -0.3 85
2020-03-21 02:00:00 8.6 3 Este 8 Oeste 0 930.4 -0.1 81
2020-03-21 01:00:00 8.3 3 Noroeste 17 Este 0 930.4 -0.3 83
2020-03-21 00:00:00 8.6 7 Sudeste 16 Sudeste 0 930.4 -0.5 81
2020-03-20 23:00:00 8.4 10 Sudeste 15 Este 0 930.5 -0.3 82
2020-03-20 22:00:00 9.2 3 Sudeste 5 Sudeste 0 930.7 -0.4 78
2020-03-20 21:00:00 11 4 Este 5 Este 0 930.9 -0.1 75
2020-03-20 20:00:00 11.5 3 Sur 9 Este 0 930.8 -0.4 70
2020-03-20 19:00:00 11.9 7 Sudeste 14 Sudeste 0 931.1 -0.4 67
2020-03-20 18:00:00 12.1 5 Sur 14 Sudeste 0 931 -0.7 68
2020-03-20 17:00:00 12.4 6 Sudeste 14 Sur 0 931.2 -0.8 64
2020-03-20 16:00:00 12.1 10 Sudeste 19 Sur 0 931.5 -0.8 66
2020-03-20 15:00:00 12.6 11 Sur 20 Sudeste 0 931.7 -1.1 65
2020-03-20 14:00:00 12.3 11 Sur 22 Sudeste 0 932 -0.9 66
2020-03-20 13:00:00 12.1 15 Sudeste 26 Sur 0 932.3 -0.6 66
2020-03-20 12:00:00 12 6 Sur 18 Sur 0 932.8 0.1 66
2020-03-20 11:00:00 11.3 12 Sur 20 Sur 0 932.9 0.6 66
2020-03-20 10:00:00 10.5 5 Sur 14 Sudeste 0 932.9 1 69
2020-03-20 09:00:00 9.6 4 Sur 11 Sur 0 932.7 0.8 74
2020-03-20 08:00:00 9.1 3 Este 8 Sudoeste 0 932.3 0.1 75
2020-03-20 07:00:00 8.9 5 Sudeste 15 Sudeste 0 931.9 -0.5 78
2020-03-20 06:00:00 9.3 4 Sudeste 13 Este 0 931.9 -1 76
2020-03-20 05:00:00 9.5 5 Sudeste 14 Este 0 932.2 -0.7 76
2020-03-20 04:00:00 9.7 3 Este 10 Sudeste 0 932.4 -0.6 77
2020-03-20 03:00:00 9.9 4 Este 26 Sudeste 0 932.9 -0.6 77
2020-03-20 02:00:00 9.8 13 Sudeste 23 Sudeste 0 932.9 -0.7 75
2020-03-20 01:00:00 10.1 10 Sur 26 Sudeste 0 933 -0.4 72
2020-03-20 00:00:00 10.5 3 Nordeste 17 Sur 0 933.5 0 77
2020-03-19 23:00:00 10.7 6 Sudoeste 28 Sur 0 933.6 0.6 78
2020-03-19 22:00:00 11.1 17 Sur 32 Sudeste 0 933.4 0.7 77
2020-03-19 21:00:00 12.3 7 Sudoeste 22 Sur 0 933.5 0.9 68
2020-03-19 20:00:00 13.1 10 Sur 23 Sudoeste 0 933 0.1 65
2020-03-19 19:00:00 15.6 7 Sur 15 Sudoeste 0 932.7 -0.8 51
2020-03-19 18:00:00 17.2 8 Sur 17 Sudoeste 0 932.6 -1.6 40
2020-03-19 17:00:00 18.1 7 Sudoeste 18 Sudoeste 0 932.9 -2.3 38
2020-03-19 16:00:00 18.1 9 Sudeste 19 Sudeste 0 933.5 -2.6 38
2020-03-19 15:00:00 17.4 12 Sur 22 Sur 0 934.2 -2.6 38
2020-03-19 14:00:00 17.3 6 Sudeste 18 Sudeste 0 935.2 -2.1 39
2020-03-19 13:00:00 16.1 5 Sur 17 Sur 0 936.1 -1.2 42
2020-03-19 12:00:00 14.9 7 Sudeste 23 Sur 0 936.8 -0.5 45
2020-03-19 11:00:00 13 4 Norte 12 Noroeste 0 937.3 0.3 70
2020-03-19 10:00:00 11.1 0 Calma 6 Sur 0 937.3 0.3 79
2020-03-19 09:00:00 9.6 0 Calma 4 Sudeste 0 937.3 0.5 87
2020-03-19 08:00:00 8.9 0 Calma 5 Sudoeste 0 937 0.3 91
2020-03-19 07:00:00 8.4 3 Sudeste 4 Sudeste 0 937 0 92
2020-03-19 06:00:00 8.2 4 Este 10 Sudoeste 0 936.8 -0.7 91
2020-03-19 05:00:00 8 5 Sudoeste 9 Sur 0 936.7 -1.4 90
2020-03-19 04:00:00 8 4 Sur 6 Sur 0 937 -1.2 89
2020-03-19 03:00:00 8.5 4 Sur 5 Sur 0 937.5 -1 87
2020-03-19 02:00:00 9.6 0 Calma 6 Sudoeste 0 938.1 -0.6 84
2020-03-19 01:00:00 10.4 3 Sudoeste 8 Sudoeste 0 938.2 -0.4 86
2020-03-19 00:00:00 10.8 7 Sudoeste 10 Sudoeste 0 938.5 0 87
2020-03-18 23:00:00 10.8 2 Sudoeste 8 Nordeste 0 938.7 0.2 87
2020-03-18 22:00:00 11.4 0 Calma 5 Sur 0 938.6 0.4 84
2020-03-18 21:00:00 12.3 2 Sur 7 Sudeste 0 938.5 0.3 80
2020-03-18 20:00:00 13.4 2 Sudeste 6 Sur 0 938.5 0.3 76
2020-03-18 19:00:00 14.8 3 Sur 10 Sudoeste 0 938.2 -0.5 71
2020-03-18 18:00:00 15.6 5 Sudoeste 10 Oeste 0 938.2 -0.8 64
2020-03-18 17:00:00 16.1 6 Sudoeste 10 Sur 0 938.2 -1.4 60
2020-03-18 16:00:00 16.2 5 Oeste 12 Sudoeste 0 938.7 -1.5 61
2020-03-18 15:00:00 16.5 6 Sudoeste 11 Sudoeste 0 939 -1.8 60
2020-03-18 14:00:00 16.3 3 Oeste 9 Noroeste 0 939.6 -1.8 61
2020-03-18 13:00:00 15.3 5 Norte 9 Noroeste 0 940.2 -1.1 61
2020-03-18 12:00:00 14.5 4 Norte 9 Norte 0 940.8 -0.4 64
2020-03-18 11:00:00 12.1 5 Nordeste 10 Norte 0 941.4 0.3 73
2020-03-18 10:00:00 10.6 3 Noroeste 6 Nordeste 0 941.3 0.2 77
2020-03-18 09:00:00 9.3 4 Nordeste 9 Nordeste 0 941.2 0.2 82
2020-03-18 08:00:00 8.6 3 Nordeste 6 Este 0 941.1 0.5 89
2020-03-18 07:00:00 9.1 3 Noroeste 9 Nordeste 0 941.1 0.7 86
2020-03-18 06:00:00 9.5 4 Nordeste 14 Nordeste 0 941 0.2 85
2020-03-18 05:00:00 9.6 3 Nordeste 15 Este 0 940.6 -0.4 85
2020-03-18 04:00:00 9.4 4 Nordeste 12 Norte 0 940.4 -1.1 86
2020-03-18 03:00:00 9.3 5 Norte 20 Este 0 940.8 -1.1 86
2020-03-18 02:00:00 9.9 10 Nordeste 21 Nordeste 0 941 -1 81
2020-03-18 01:00:00 9.5 8 Nordeste 23 Nordeste 0 941.5 -0.2 84
2020-03-18 00:00:00 9.6 13 Nordeste 22 Nordeste 0 941.9 0.7 83
2020-03-17 23:00:00 10.9 7 Norte 20 Nordeste 0 942 1.5 78
2020-03-17 22:00:00 11.2 10 Nordeste 23 Este 0 941.7 1.9 79
2020-03-17 21:00:00 12.2 7 Nordeste 26 Este 0 941.2 1.8 77
2020-03-17 20:00:00 12.6 12 Nordeste 22 Nordeste 0 940.5 1.4 78
2020-03-17 19:00:00 13.6 14 Nordeste 28 Este 0 939.8 0.5 73
2020-03-17 18:00:00 14.7 19 Este 37 Este 0 939.4 0.3 67
2020-03-17 17:00:00 14 31 Este 49 Este 0 939.1 -0.1 69
2020-03-17 16:00:00 15.8 26 Sudeste 43 Este 0 939.3 0 61
2020-03-17 15:00:00 16.6 19 Sudeste 41 Este 0 939.1 -0.1 59
2020-03-17 14:00:00 15.6 18 Este 33 Este 0 939.2 0.1 60
2020-03-17 13:00:00 15 22 Este 36 Este 0 939.3 0.8 63
2020-03-17 12:00:00 13.5 18 Este 29 Este 0 939.2 1.4 71
2020-03-17 11:00:00 11.2 12 Nordeste 22 Este 0 939.1 2.1 82
2020-03-17 10:00:00 9.3 12 Este 19 Este 0 938.5 1.6 90
2020-03-17 09:00:00 6.8 5 Nordeste 10 Norte 0 937.8 2 96
2020-03-17 08:00:00 5.5 3 Nordeste 5 Sudeste 0 937 1.6 96
2020-03-17 07:00:00 5.3 3 Sudoeste 9 Nordeste 0 936.9 1.7 97
2020-03-17 06:00:00 5.2 5 Nordeste 9 Este 0 935.8 0.7 97
2020-03-17 05:00:00 5 3 Nordeste 13 Este 1.4 935.4 0.5 97
2020-03-17 04:00:00 4.9 5 Nordeste 17 Nordeste 1.6 935.2 0.2 97
2020-03-17 03:00:00 4.5 9 Nordeste 20 Este 0.6 935.1 0.8 94
2020-03-17 02:00:00 4.5 10 Este 20 Este 0.8 934.9 1.3 92
2020-03-17 01:00:00 4.4 14 Este 25 Este 0.8 935 2.4 90
2020-03-17 00:00:00 4.6 12 Este 26 Sudeste 1.6 934.3 2.5 88
2020-03-16 23:00:00 5.3 15 Sudeste 27 Este 0.6 933.6 2.7 86
2020-03-16 22:00:00 5.8 11 Nordeste 31 Nordeste 0 932.6 2.1 87
2020-03-16 21:00:00 5.8 21 Este 29 Este 0 931.8 1.9 83
2020-03-16 20:00:00 4.9 12 Este 21 Nordeste 0 930.9 1.8 89
2020-03-16 19:00:00 4.7 8 Este 26 Este 0.2 930.5 1.7 87
2020-03-16 18:00:00 5.3 18 Este 36 Este 0 929.9 1.6 83
2020-03-16 17:00:00 6.1 23 Este 50 Este 0 929.1 0.7 77
2020-03-16 16:00:00 6.3 28 Este 44 Este 0.2 928.8 0.7 83
2020-03-16 15:00:00 6.9 13 Este 27 Este 0 928.3 0.3 82
2020-03-16 14:00:00 6.9 10 Sudeste 17 Sudeste 0.2 928.4 1 83
2020-03-16 13:00:00 5.8 5 Oeste 18 Sur 0.2 928.1 1 88
2020-03-16 12:00:00 5.4 10 Sudeste 18 Sur 0.2 928 1.9 89
2020-03-16 11:00:00 4.9 11 Nordeste 18 Nordeste 1.2 927.4 2.4 91
2020-03-16 10:00:00 5.1 5 Nordeste 20 Nordeste 2 927.1 2.4 89
2020-03-16 09:00:00 5.5 9 Sur 18 Sur 0 926.1 1.6 89
2020-03-16 08:00:00 5.7 5 Sur 14 Norte 0 925 0.6 90
2020-03-16 07:00:00 5.7 5 Este 24 Sudeste 1.2 924.7 0.4 91
2020-03-16 06:00:00 5.9 13 Sudeste 27 Sur 4.6 924.5 -0.5 89
2020-03-16 05:00:00 7.2 11 Sudoeste 19 Sur 2.6 924.4 -1.2 92
2020-03-16 04:00:00 7.3 9 Sur 18 Sudoeste 2.8 924.3 -1.6 90
2020-03-16 03:00:00 7.9 12 Sudoeste 28 Sudoeste 3.2 925 -1.1 90
2020-03-16 02:00:00 8.9 8 Sudoeste 35 Sur 0.6 925.6 -1.2 85
2020-03-16 01:00:00 9.7 15 Sur 33 Sudoeste 3 925.9 -1.3 91
2020-03-16 00:00:00 10.1 13 Sur 42 Sur 1 926.1 -1 87
2020-03-15 23:00:00 10.9 8 Sudoeste 46 Sur 2.6 926.8 0.8 83
2020-03-15 22:00:00 10.8 27 Sudoeste 59 Sudoeste 1.2 927.2 1.8 81
2020-03-15 21:00:00 11 9 Sudoeste 33 Oeste 4.4 927.1 0.9 81
2020-03-15 20:00:00 14.6 17 Sur 33 Sur 0 926 -0.8 65
2020-03-15 19:00:00 16.1 17 Sur 35 Sudoeste 0 925.4 -2 59
2020-03-15 18:00:00 18 19 Sudoeste 32 Sudoeste 0 926.2 -1.6 53
2020-03-15 17:00:00 18.2 17 Sudoeste 37 Oeste 0 926.8 -2.2 50
2020-03-15 16:00:00 19.5 18 Sudoeste 35 Sudoeste 0 927.4 -2.7 44
2020-03-15 15:00:00 20 19 Oeste 34 Sudoeste 0 927.8 -3.5 42
2020-03-15 14:00:00 19.4 14 Sudoeste 28 Oeste 0 929 -2.8 50
2020-03-15 13:00:00 18.4 7 Oeste 17 Sudoeste 0 930.1 -1.9 56
2020-03-15 12:00:00 15.4 6 Noroeste 13 Noroeste 0 931.3 -0.8 62
2020-03-15 11:00:00 13.8 5 Noroeste 10 Noroeste 0 931.8 -0.2 62
2020-03-15 10:00:00 11.9 3 Norte 6 Norte 0 932 0 61
2020-03-15 09:00:00 8.2 0 Calma 5 Noroeste 0 932.1 0.3 66
2020-03-15 08:00:00 7.2 3 Norte 5 Noroeste 0 932 0.1 70
2020-03-15 07:00:00 6.7 2 Sur 5 Sudeste 0 932 -0.3 69
2020-03-15 06:00:00 7.4 2 Este 8 Noroeste 0 931.8 -0.9 63
2020-03-15 05:00:00 8.3 3 Norte 8 Noroeste 0 931.9 -1.2 62
2020-03-15 04:00:00 8.6 4 Norte 12 Noroeste 0 932.3 -1 57
2020-03-15 03:00:00 9.1 4 Noroeste 12 Norte 0 932.7 -0.8 55
2020-03-15 02:00:00 9 3 Nordeste 5 Norte 0 933.1 -0.7 55
2020-03-15 01:00:00 10.7 2 Nordeste 9 Norte 0 933.3 -0.3 49
2020-03-15 00:00:00 11.7 4 Norte 12 Norte 0 933.5 0 45
2020-03-14 23:00:00 11.5 3 Este 7 Este 0 933.8 0.6 56
2020-03-14 22:00:00 12.7 2 Sur 13 Noroeste 0 933.6 0.7 54
2020-03-14 21:00:00 14.2 0 Calma 6 Sur 0 933.5 0.7 50
2020-03-14 20:00:00 17.1 3 Sur 10 Sudoeste 0 933.2 0.3 43
2020-03-14 19:00:00 20.5 6 Oeste 13 Sudoeste 0 932.9 -0.2 33
2020-03-14 18:00:00 22 5 Noroeste 13 Noroeste 0 932.8 -0.9 31
2020-03-14 17:00:00 22.2 4 Noroeste 16 Sudoeste 0 932.9 -1.6 35
2020-03-14 16:00:00 21.9 10 Oeste 18 Sudoeste 0 933.1 -2.1 35
2020-03-14 15:00:00 21.1 6 Norte 14 Norte 0 933.7 -2 38
2020-03-14 14:00:00 20.6 5 Nordeste 14 Este 0 934.5 -1.6 44
2020-03-14 13:00:00 19 6 Norte 13 Norte 0 935.2 -1 50
2020-03-14 12:00:00 17.7 4 Norte 14 Noroeste 0 935.7 -0.1 52
2020-03-14 11:00:00 15.1 5 Norte 12 Norte 0 936.1 0.6 62
2020-03-14 10:00:00 12.4 6 Nordeste 12 Norte 0 936.2 1.3 68
2020-03-14 09:00:00 9.8 5 Norte 12 Norte 0 935.8 1.5 76
2020-03-14 08:00:00 7.3 3 Noroeste 10 Nordeste 0 935.5 1.2 86
2020-03-14 07:00:00 7.4 3 Nordeste 12 Nordeste 0 934.9 0.8 85
2020-03-14 06:00:00 8.6 3 Noroeste 11 Este 0 934.3 -0.1 81
2020-03-14 05:00:00 8.7 5 Nordeste 19 Norte 0 934.3 -0.3 81
2020-03-14 04:00:00 10.5 7 Norte 18 Nordeste 0 934.1 -0.1 74
2020-03-14 03:00:00 10.3 10 Este 17 Nordeste 0 934.4 0.3 75
2020-03-14 02:00:00 10.3 9 Nordeste 14 Nordeste 0 934.6 0.8 76
2020-03-14 01:00:00 11.3 4 Nordeste 8 Nordeste 0 934.2 0.8 73
2020-03-14 00:00:00 12.4 4 Nordeste 12 Nordeste 0 934.1 1.3 69
2020-03-13 23:00:00 14.5 6 Norte 17 Nordeste 0 933.8 1.7 61
2020-03-13 22:00:00 15.4 8 Nordeste 18 Nordeste 0 933.4 1.8 59
2020-03-13 21:00:00 15.7 5 Nordeste 11 Nordeste 0 932.8 1.7 56
2020-03-13 20:00:00 17.6 3 Sudeste 15 Sudoeste 0 932.1 1.1 48
2020-03-13 19:00:00 20.5 10 Oeste 23 Oeste 0 931.6 0.3 39
2020-03-13 18:00:00 22.6 9 Sudoeste 21 Sudoeste 0 931.1 -0.5 38
2020-03-13 17:00:00 22.6 7 Sudoeste 22 Sudoeste 0 931 -1.4 36
2020-03-13 16:00:00 23.5 11 Sudoeste 22 Oeste 0 931.3 -1.7 35
2020-03-13 15:00:00 22.7 14 Sudoeste 24 Sudoeste 0 931.6 -1.7 39
2020-03-13 14:00:00 22.6 6 Noroeste 15 Oeste 0 932.4 -1.2 40
2020-03-13 13:00:00 21 5 Oeste 15 Norte 0 933 -0.7 48
2020-03-13 12:00:00 19 8 Noroeste 14 Norte 0 933.3 -0.3 54
2020-03-13 11:00:00 16.6 6 Norte 18 Nordeste 0 933.6 0.4 61
2020-03-13 10:00:00 14.7 9 Nordeste 15 Nordeste 0 933.7 1 68
2020-03-13 09:00:00 11.8 7 Nordeste 13 Nordeste 0 933.6 1 75
2020-03-13 08:00:00 10 5 Nordeste 14 Nordeste 0 933.2 0.8 81
2020-03-13 07:00:00 8.8 6 Este 10 Nordeste 0 932.7 0.2 83
2020-03-13 06:00:00 9.4 2 Este 7 Sudeste 0 932.6 -0.3 77
2020-03-13 05:00:00 10.7 4 Norte 10 Nordeste 0 932.4 -0.3 71
2020-03-13 04:00:00 9.8 3 Noroeste 8 Sur 0 932.5 -0.6 74
2020-03-13 03:00:00 10.6 5 Sur 8 Noroeste 0 932.9 -0.4 70
2020-03-13 02:00:00 11.8 0 Calma 5 Norte 0 932.7 -0.6 65
2020-03-13 01:00:00 13.2 2 Noroeste 6 Este 0 933.1 0.1 61
2020-03-13 00:00:00 14.2 2 Norte 5 Norte 0 933.3 0.2 57
2020-03-12 23:00:00 15.4 4 Este 9 Oeste 0 933.3 0.4 54
2020-03-12 22:00:00 16.4 4 Sudeste 7 Sur 0 933 0.2 49
2020-03-12 21:00:00 17.6 3 Sudeste 5 Sur 0 933.1 0.4 47
2020-03-12 20:00:00 19.2 3 Sudeste 7 Sudeste 0 932.9 0.1 44
2020-03-12 19:00:00 22.1 2 Oeste 9 Noroeste 0 932.8 -0.6 36
2020-03-12 18:00:00 23.3 3 Oeste 13 Oeste 0 932.7 -1.3 31
2020-03-12 17:00:00 24.3 6 Oeste 17 Sudoeste 0 932.8 -2 31
2020-03-12 16:00:00 24.8 10 Oeste 20 Sudoeste 0 933.4 -2.5 31
2020-03-12 15:00:00 25.5 8 Oeste 16 Oeste 0 934 -2.3 35
2020-03-12 14:00:00 23.9 4 Norte 8 Noroeste 0 934.8 -1.9 36
2020-03-12 13:00:00 21.8 4 Norte 10 Noroeste 0 935.9 -0.9 42
2020-03-12 12:00:00 18.8 4 Norte 9 Nordeste 0 936.3 -0.4 54
2020-03-12 11:00:00 15.9 4 Nordeste 8 Norte 0 936.7 0.1 62
2020-03-12 10:00:00 12.5 4 Norte 7 Norte 0 936.8 0.3 70
2020-03-12 09:00:00 11.6 5 Nordeste 7 Nordeste 0 936.7 0.2 72
2020-03-12 08:00:00 9 4 Noroeste 8 Este 0 936.6 0.1 80
2020-03-12 07:00:00 8.5 3 Este 6 Este 0 936.5 -0.4 81
2020-03-12 06:00:00 8.9 2 Norte 6 Nordeste 0 936.5 -1.1 79
2020-03-12 05:00:00 9.3 2 Noroeste 6 Norte 0 936.5 -1.3 77
2020-03-12 04:00:00 9.8 3 Nordeste 8 Nordeste 0 936.9 -1 75
2020-03-12 03:00:00 10.5 6 Nordeste 8 Este 0 937.6 -0.7 72
2020-03-12 02:00:00 11.3 3 Sudeste 6 Norte 0 937.8 -0.5 70
2020-03-12 01:00:00 12.4 0 Calma 5 Sudoeste 0 937.9 -0.3 66
2020-03-12 00:00:00 14.2 2 Norte 7 Noroeste 0 938.3 0.3 60
2020-03-11 23:00:00 15.6 3 Este 13 Sur 0 938.3 0.3 56
2020-03-11 22:00:00 16.7 10 Sur 15 Sur 0 938.2 0.2 53
2020-03-11 21:00:00 16.7 6 Sur 10 Sur 0 938 0.3 54
2020-03-11 20:00:00 18.9 5 Sur 8 Sur 0 938 0.3 47
2020-03-11 19:00:00 22 4 Sudoeste 12 Oeste 0 938 0.2 41
2020-03-11 18:00:00 23.6 7 Oeste 17 Sudoeste 0 937.7 -0.7 33
2020-03-11 17:00:00 24.6 8 Oeste 18 Oeste 0 937.7 -1.5 31
2020-03-11 16:00:00 25.7 6 Oeste 15 Sudoeste 0 937.8 -2.1 30
2020-03-11 15:00:00 25.3 6 Oeste 18 Oeste 0 938.4 -2.2 31
2020-03-11 14:00:00 23.9 6 Oeste 16 Oeste 0 939.2 -1.9 34
2020-03-11 13:00:00 21.7 3 Noroeste 10 Sudoeste 0 939.9 -1.1 41
2020-03-11 12:00:00 18.7 3 Noroeste 10 Norte 0 940.6 0.1 50
2020-03-11 11:00:00 15.9 5 Nordeste 8 Nordeste 0 941.1 0.7 55
2020-03-11 10:00:00 12.8 3 Norte 6 Noroeste 0 941 0.8 63
2020-03-11 09:00:00 9.8 3 Nordeste 6 Nordeste 0 940.5 0.5 74
2020-03-11 08:00:00 6.6 3 Nordeste 5 Nordeste 0 940.4 0.6 82
2020-03-11 07:00:00 7 2 Nordeste 5 Norte 0 940.2 0.1 82
2020-03-11 06:00:00 7.3 3 Noroeste 6 Nordeste 0 940 -0.3 81
2020-03-11 05:00:00 7.8 0 Calma 6 Nordeste 0 939.8 -0.9 79
2020-03-11 04:00:00 8.4 2 Sur 10 Sudoeste 0 940.1 -0.7 75
2020-03-11 03:00:00 9 3 Nordeste 5 Nordeste 0 940.3 -0.6 74
2020-03-11 02:00:00 9.8 0 Calma 5 Nordeste 0 940.7 -0.3 71
2020-03-11 01:00:00 11 0 Calma 5 Sudeste 0 940.8 -0.2 66
2020-03-11 00:00:00 11.7 4 Sur 12 Sur 0 940.9 0.2 63
2020-03-10 23:00:00 12.4 4 Sur 7 Sur 0 941 0.6 60
2020-03-10 22:00:00 13.8 5 Sur 12 Sur 0 941 0.8 55
2020-03-10 21:00:00 14.8 8 Sur 11 Sur 0 940.7 0.6 53
2020-03-10 20:00:00 16.6 7 Sur 10 Sur 0 940.4 0.1 46
2020-03-10 19:00:00 19.7 6 Sudoeste 15 Oeste 0 940.2 -0.4 37
2020-03-10 18:00:00 21.7 9 Oeste 18 Oeste 0 940.1 -0.9 33
2020-03-10 17:00:00 22.4 7 Oeste 14 Sudoeste 0 940.3 -1.4 31
2020-03-10 16:00:00 22.1 7 Oeste 17 Oeste 0 940.6 -1.7 32
2020-03-10 15:00:00 21 8 Sudoeste 16 Sudoeste 0 941 -1.5 34
2020-03-10 14:00:00 19.6 8 Oeste 16 Sur 0 941.7 -0.9 37
2020-03-10 13:00:00 17.8 6 Sudoeste 11 Noroeste 0 942.3 0 39
2020-03-10 12:00:00 15.5 4 Oeste 10 Oeste 0 942.5 0.4 43
2020-03-10 11:00:00 13.5 3 Noroeste 6 Noroeste 0 942.6 0.8 48
2020-03-10 10:00:00 10.4 2 Norte 7 Norte 0 942.3 0.7 55
2020-03-10 09:00:00 7.9 3 Norte 6 Nordeste 0 942.1 0.7 65
2020-03-10 08:00:00 5.9 2 Este 4 Este 0 941.8 0.8 70
2020-03-10 07:00:00 5.4 2 Sudeste 4 Sur 0 941.6 0.6 71
2020-03-10 06:00:00 5.3 3 Sur 7 Sur 0 941.4 0.4 70
2020-03-10 05:00:00 5.8 3 Oeste 9 Sur 0 941 -0.2 69
2020-03-10 04:00:00 5.7 6 Sudeste 9 Oeste 0 941 -0.3 68
2020-03-10 03:00:00 6.4 3 Sudeste 7 Sudeste 0 941 -0.4 65
2020-03-10 02:00:00 6.4 2 Sudeste 8 Sudeste 0 941.2 -0.2 65
2020-03-10 01:00:00 6.3 4 Sur 10 Noroeste 0 941.3 0.3 66
2020-03-10 00:00:00 7.1 4 Este 11 Noroeste 0 941.4 0.4 64
2020-03-09 23:00:00 7.5 4 Sur 8 Sudeste 0 941.4 0.8 62
2020-03-09 22:00:00 8.5 3 Sur 8 Sur 0 941 1.1 59
2020-03-09 21:00:00 10.5 4 Sur 10 Norte 0 941 1.3 51
2020-03-09 20:00:00 12 5 Nordeste 21 Noroeste 0 940.6 1.1 46
2020-03-09 19:00:00 13.9 9 Norte 23 Norte 0 939.9 0.5 39
2020-03-09 18:00:00 14.7 12 Noroeste 32 Noroeste 0 939.7 0 40
2020-03-09 17:00:00 15.6 17 Noroeste 33 Noroeste 0 939.5 -1.1 36
2020-03-09 16:00:00 15.8 10 Oeste 30 Noroeste 0 939.4 -1.6 36
2020-03-09 15:00:00 15.4 13 Noroeste 24 Norte 0 939.7 -1.9 36
2020-03-09 14:00:00 14.8 9 Noroeste 25 Norte 0 940.6 -1.2 38
2020-03-09 13:00:00 14.2 8 Noroeste 19 Noroeste 0 941 -0.4 38
2020-03-09 12:00:00 12.1 5 Norte 19 Nordeste 0 941.6 0.9 49
2020-03-09 11:00:00 11.3 5 Nordeste 17 Nordeste 0 941.8 1.9 57
2020-03-09 10:00:00 9.4 11 Nordeste 17 Nordeste 0 941.4 2 62
2020-03-09 09:00:00 7.3 3 Nordeste 12 Nordeste 0 940.7 1.2 72
2020-03-09 08:00:00 7.2 5 Nordeste 12 Nordeste 0 939.9 0.9 67
2020-03-09 07:00:00 7.1 6 Sur 17 Sur 0 939.4 0.3 69
2020-03-09 06:00:00 7.3 8 Noroeste 15 Nordeste 0 939.5 0 72
2020-03-09 05:00:00 5 5 Sudeste 8 Sur 0 939 -0.7 84
2020-03-09 04:00:00 5.9 4 Sudoeste 10 Sudeste 0 939.1 -0.4 79
2020-03-09 03:00:00 6.3 5 Sudoeste 9 Sur 0 939.5 -0.6 80
2020-03-09 02:00:00 6.2 3 Sudeste 8 Sudeste 0 939.7 -0.1 80
2020-03-09 01:00:00 6.7 3 Sur 9 Norte 0 939.5 -0.1 77
2020-03-09 00:00:00 8.1 5 Nordeste 13 Norte 0 940.1 0.8 75
2020-03-08 23:00:00 8.2 4 Sur 8 Sur 0 939.8 0.7 76
2020-03-08 22:00:00 10.8 4 Sur 16 Sudoeste 0 939.6 0.8 63
2020-03-08 21:00:00 11.4 8 Sudoeste 11 Sudoeste 0 939.3 0.7 58
2020-03-08 20:00:00 12.2 4 Sur 7 Sur 0 939.1 0.1 55
2020-03-08 19:00:00 13.6 6 Sudoeste 15 Oeste 0 938.8 0.2 47
2020-03-08 18:00:00 14 8 Sudoeste 14 Oeste 0 938.6 -0.5 44
2020-03-08 17:00:00 14 8 Oeste 22 Sudoeste 0 939 -0.4 40
2020-03-08 16:00:00 14.1 12 Sudoeste 21 Oeste 0 938.6 -1.7 35
2020-03-08 15:00:00 14.8 13 Oeste 22 Oeste 0 939.1 -1.7 36
2020-03-08 14:00:00 15.3 9 Oeste 18 Oeste 0 939.4 -1.8 39
2020-03-08 13:00:00 13.9 5 Noroeste 17 Oeste 0 940.3 -0.6 49
2020-03-08 12:00:00 12.4 4 Oeste 9 Sudoeste 0 940.8 0.4 55
2020-03-08 11:00:00 8.9 3 Norte 10 Noroeste 0 941.2 1 66
2020-03-08 10:00:00 6.9 4 Norte 8 Norte 0 940.9 1.2 72
2020-03-08 09:00:00 3.2 3 Norte 10 Sudeste 0 940.4 0.5 86
2020-03-08 08:00:00 0.5 5 Este 9 Sudeste 0 940.2 0.2 90
2020-03-08 07:00:00 1.1 4 Norte 9 Norte 0 939.7 -0.2 91
2020-03-08 06:00:00 1.2 4 Norte 6 Norte 0 939.9 -0.2 90
2020-03-08 05:00:00 1.8 3 Este 9 Noroeste 0 940 -0.3 86
2020-03-08 04:00:00 2.1 4 Sur 6 Norte 0 939.9 -0.6 87
2020-03-08 03:00:00 3 3 Este 8 Nordeste 0 940.1 -1.2 84
2020-03-08 02:00:00 4.3 5 Nordeste 8 Norte 0 940.3 -0.7 77
2020-03-08 01:00:00 4.4 2 Este 9 Nordeste 0 940.5 -0.4 79
2020-03-08 00:00:00 6.2 4 Norte 12 Este 0 941.3 0.8 72
2020-03-07 23:00:00 7.4 6 Nordeste 10 Nordeste 0 941 0.9 67
2020-03-07 22:00:00 7.4 8 Este 10 Este 0 940.9 1.3 67
2020-03-07 21:00:00 8.9 5 Nordeste 10 Este 0 940.5 1.2 62
2020-03-07 20:00:00 10.6 4 Nordeste 7 Este 0 940.1 0.9 56
2020-03-07 19:00:00 13.7 5 Nordeste 15 Nordeste 0 939.6 0.3 46
2020-03-07 18:00:00 15 5 Nordeste 15 Noroeste 0 939.3 -0.2 41
2020-03-07 17:00:00 15.1 9 Norte 21 Noroeste 0 939.2 -0.6 41
2020-03-07 16:00:00 15 8 Nordeste 22 Noroeste 0 939.3 -1.3 42
2020-03-07 15:00:00 14.3 8 Norte 26 Nordeste 0 939.5 -1.2 43
2020-03-07 14:00:00 14.3 13 Nordeste 31 Nordeste 0 939.8 -1.1 43
2020-03-07 13:00:00 13.3 10 Norte 23 Nordeste 0 940.6 0 47
2020-03-07 12:00:00 11.4 4 Oeste 19 Norte 0 940.7 0.5 52
2020-03-07 11:00:00 9.8 6 Noroeste 23 Noroeste 0 940.9 0.9 58
2020-03-07 10:00:00 8.6 9 Noroeste 17 Noroeste 0 940.6 1.4 59
2020-03-07 09:00:00 6.6 5 Norte 15 Norte 0 940.2 1.3 59
2020-03-07 08:00:00 3.5 5 Este 13 Sudeste 0 940 1.3 62
2020-03-07 07:00:00 5.1 5 Norte 27 Noroeste 0 939.2 0.5 54
2020-03-07 06:00:00 4.6 5 Noroeste 10 Sudeste 0 938.9 0 56
2020-03-07 05:00:00 2.5 4 Este 8 Sudeste 0 938.7 -0.2 65
2020-03-07 04:00:00 3.4 4 Este 14 Norte 0 938.7 -0.1 62
2020-03-07 03:00:00 5.2 7 Norte 28 Norte 0 938.9 0.4 55
2020-03-07 02:00:00 4 5 Norte 13 Noroeste 0 938.9 0.6 63
2020-03-07 01:00:00 3.1 3 Sudoeste 7 Nordeste 0 938.8 1.1 70
2020-03-07 00:00:00 4.7 4 Este 19 Nordeste 0 938.5 1.8 62
2020-03-06 23:00:00 7 7 Norte 33 Noroeste 0 938.3 2.1 50
2020-03-06 22:00:00 8.3 17 Noroeste 30 Noroeste 0 937.7 2.3 47
2020-03-06 21:00:00 8.4 11 Noroeste 21 Noroeste 0 936.7 2.1 44
2020-03-06 20:00:00 8.5 10 Noroeste 32 Noroeste 0 936.2 2.2 43
2020-03-06 19:00:00 9.3 20 Noroeste 40 Noroeste 0 935.4 1.6 40
2020-03-06 18:00:00 9.8 12 Norte 42 Noroeste 0 934.6 1.2 40
2020-03-06 17:00:00 10.4 17 Noroeste 37 Noroeste 0 934 0.3 38
2020-03-06 16:00:00 10.1 22 Norte 45 Noroeste 0 933.8 0.1 34
2020-03-06 15:00:00 9.9 27 Noroeste 51 Noroeste 0 933.4 0.1 39
2020-03-06 14:00:00 9.2 22 Noroeste 54 Noroeste 0 933.7 0.8 44
2020-03-06 13:00:00 9.4 28 Noroeste 51 Noroeste 0 933.7 1.7 42
2020-03-06 12:00:00 8.3 25 Noroeste 48 Noroeste 0 933.3 1.4 48
2020-03-06 11:00:00 8.3 18 Noroeste 44 Noroeste 0 932.9 2.2 49
2020-03-06 10:00:00 8.7 12 Noroeste 33 Oeste 0 932 2.1 48
2020-03-06 09:00:00 7.4 13 Noroeste 31 Noroeste 0 931.9 2 59
2020-03-06 08:00:00 6.8 7 Noroeste 36 Noroeste 0 930.7 0.7 62
2020-03-06 07:00:00 5.8 16 Sudoeste 27 Sudoeste 0 929.9 -0.3 74
2020-03-06 06:00:00 6.2 17 Oeste 31 Oeste 0 929.9 -0.7 77
2020-03-06 05:00:00 5.6 10 Sudoeste 19 Sudoeste 0 930 -1.2 72
2020-03-06 04:00:00 5.4 11 Sudoeste 19 Sudoeste 0 930.2 -0.9 72
2020-03-06 03:00:00 6.3 7 Sudoeste 22 Noroeste 0 930.6 -0.3 69
2020-03-06 02:00:00 7.2 10 Noroeste 22 Noroeste 0 931.2 0.5 63
2020-03-06 01:00:00 8.2 8 Oeste 28 Noroeste 0 931.1 0.2 62
2020-03-06 00:00:00 8.2 5 Noroeste 20 Noroeste 0 930.9 1.1 66
2020-03-05 23:00:00 8.5 3 Sudoeste 11 Noroeste 0 930.7 1.3 69
2020-03-05 22:00:00 9.1 8 Nordeste 30 Norte 0 930.9 2.3 70
2020-03-05 21:00:00 10.3 11 Oeste 31 Oeste 0 929.8 1.4 62
2020-03-05 20:00:00 11.3 10 Oeste 32 Oeste 0 929.4 1.2 59
2020-03-05 19:00:00 12.4 17 Oeste 34 Oeste 0 928.6 0.6 51
2020-03-05 18:00:00 13.8 10 Oeste 39 Noroeste 0 928.4 0.7 43
2020-03-05 17:00:00 13.6 15 Noroeste 49 Noroeste 0 928.2 0.8 42
2020-03-05 16:00:00 14 24 Noroeste 45 Noroeste 0 928 -0.2 40
2020-03-05 15:00:00 14.2 20 Noroeste 47 Noroeste 0 927.7 -0.3 40
2020-03-05 14:00:00 14.7 7 Noroeste 36 Oeste 0 927.4 -0.4 51
2020-03-05 13:00:00 11.3 5 Norte 40 Oeste 0.2 928.2 0.4 76
2020-03-05 12:00:00 11.3 32 Oeste 56 Sudoeste 0.2 928 0.2 86
2020-03-05 11:00:00 11.1 27 Oeste 50 Oeste 0 927.8 -0.2 84
2020-03-05 10:00:00 11.4 19 Sudoeste 45 Sudoeste 0 927.8 -0.7 82
2020-03-05 09:00:00 11 20 Sudoeste 42 Sudoeste 0 927.8 -1 85
2020-03-05 08:00:00 10.8 19 Sudoeste 39 Sudoeste 0 928 -2 88
2020-03-05 07:00:00 10.6 18 Sudoeste 37 Sudoeste 0 928.5 -1.8 91
2020-03-05 06:00:00 10.2 20 Sudoeste 32 Sudoeste 0 928.8 -3 92
2020-03-05 05:00:00 9.8 15 Sudoeste 28 Sudoeste 0 930 -2.3 94
2020-03-05 04:00:00 9.8 13 Sudoeste 25 Sudoeste 0 930.3 -2.8 90
2020-03-05 03:00:00 10.2 10 Sudoeste 17 Sudoeste 0 931.8 -1.9 84
2020-03-05 02:00:00 10.5 11 Sudoeste 21 Sudoeste 0 932.3 -1.9 84
2020-03-05 01:00:00 11.3 13 Sudoeste 20 Sudoeste 0 933.1 -1.3 81
2020-03-05 00:00:00 11.1 9 Sudoeste 15 Sudoeste 0 933.7 -0.9 72
2020-03-04 23:00:00 11.2 9 Sudoeste 15 Sudoeste 0 934.2 -0.4 65
2020-03-04 22:00:00 11 9 Sur 12 Sur 0 934.4 0.1 68
2020-03-04 21:00:00 12.3 5 Sur 10 Sur 0 934.6 0.8 63
2020-03-04 20:00:00 14.2 4 Este 14 Norte 0 934.6 0.3 58
2020-03-04 19:00:00 15.2 8 Norte 19 Noroeste 0 934.3 -0.1 51
2020-03-04 18:00:00 16.4 7 Norte 17 Norte 0 933.8 -1.1 48
2020-03-04 17:00:00 16.4 6 Norte 14 Norte 0 934.3 -1.1 49
2020-03-04 16:00:00 16.7 8 Norte 21 Sudoeste 0 934.4 -1.5 49
2020-03-04 15:00:00 17.1 14 Oeste 27 Oeste 0 934.9 -1.7 48
2020-03-04 14:00:00 17.6 10 Sudoeste 21 Sudoeste 0 935.4 -1.4 46
2020-03-04 13:00:00 17.1 5 Oeste 20 Oeste 0 935.9 -0.6 53
2020-03-04 12:00:00 14.9 12 Oeste 24 Sudoeste 0 936.6 0.5 66
2020-03-04 11:00:00 14.1 16 Oeste 27 Oeste 0 936.8 1.3 75
2020-03-04 10:00:00 12.3 15 Sudoeste 28 Sudoeste 0 936.5 1.5 83
2020-03-04 09:00:00 11.1 14 Sudoeste 26 Sudoeste 0 936.1 1.2 90
2020-03-04 08:00:00 10.3 13 Sudoeste 27 Sudoeste 0 935.5 0.7 93
2020-03-04 07:00:00 10.5 15 Sudoeste 24 Sudoeste 0 935 0.2 91
2020-03-04 06:00:00 10.8 13 Sudoeste 23 Sudoeste 0 934.9 -0.2 92
2020-03-04 05:00:00 11.1 14 Sudoeste 32 Sudoeste 0 934.8 -0.3 92
2020-03-04 04:00:00 11.5 15 Sudoeste 32 Sudoeste 0 934.8 0.1 90
2020-03-04 03:00:00 12.2 16 Sudoeste 26 Sudoeste 0 935.1 0.6 86
2020-03-04 02:00:00 12.1 12 Sudoeste 24 Sudoeste 0 935.1 0.4 87
2020-03-04 01:00:00 12.1 13 Sudoeste 23 Sudoeste 0 934.7 0.8 88
2020-03-04 00:00:00 11.9 13 Sudoeste 21 Sudoeste 0 934.5 1.4 88
2020-03-03 23:00:00 12.1 11 Sudoeste 21 Oeste 0 934.7 1.9 85
2020-03-03 22:00:00 12.2 13 Sudoeste 26 Sudoeste 0 933.9 2 84
2020-03-03 21:00:00 11.6 16 Sudoeste 24 Sudoeste 0 933.1 2.1 87
2020-03-03 20:00:00 11.9 12 Sudoeste 33 Sudoeste 0 932.8 2.4 83
2020-03-03 19:00:00 13 23 Sudoeste 45 Oeste 0 931.9 1.8 78
2020-03-03 18:00:00 14.8 24 Oeste 45 Sudoeste 0 931 0.3 69
2020-03-03 17:00:00 15.2 25 Oeste 45 Sudoeste 0 930.4 -0.7 66
2020-03-03 16:00:00 14.4 23 Sudoeste 41 Oeste 0 930.1 -1.6 67
2020-03-03 15:00:00 13 17 Sudoeste 39 Sudoeste 0 930.7 -1.1 71
2020-03-03 14:00:00 11.4 25 Sudoeste 46 Sudoeste 0 931.1 -1 74
2020-03-03 13:00:00 9.4 22 Sudoeste 51 Sudoeste 0 931.7 -0.3 82
2020-03-03 12:00:00 8.5 23 Sudoeste 50 Oeste 0 931.8 -0.2 84
2020-03-03 11:00:00 6.8 21 Sudoeste 44 Sudoeste 0 932.1 0.3 90
2020-03-03 10:00:00 6.1 22 Sudoeste 44 Oeste 0 932 0.4 85
2020-03-03 09:00:00 5.6 12 Sudoeste 29 Sudoeste 0 932 0 78
2020-03-03 08:00:00 5.6 14 Sudoeste 28 Sudoeste 0 931.8 0 73
2020-03-03 07:00:00 6 15 Sudoeste 25 Sudoeste 0 931.6 -0.9 68
2020-03-03 06:00:00 6.2 12 Sudoeste 27 Oeste 0 932 -1.1 66
2020-03-03 05:00:00 5.7 15 Sudoeste 23 Sudoeste 0 931.8 -1.8 67
2020-03-03 04:00:00 5.3 13 Sudoeste 25 Sudoeste 0 932.5 -0.9 64
2020-03-03 03:00:00 4.9 12 Sudoeste 20 Sudoeste 0 933.1 0.2 65
2020-03-03 02:00:00 5.3 12 Sudoeste 18 Sudoeste 0 933.6 0.6 63
2020-03-03 01:00:00 5.4 9 Sudoeste 19 Oeste 0 933.4 1.3 67
2020-03-03 00:00:00 6.3 6 Sudoeste 25 Oeste 0 932.9 1.1 62